リアルタイムの雷と雷雨のネットワーク
Regions/Countries:
List of Stations for "-" sorted descending by Effectivity L
(Effectivity L = Number of received Signals of the last hour that have been used in calculations of strike positions with a distance up to 5000 km (absolute/relative))
Station都市CommentStatusLast signalSignalsEffectivity SEffectivity MEffectivity L
658KingsportSystem Green 1200mm loop wi...United States / TennesseeRunning2017-11-18 19:0722790|0%56|35%1390|60%
934Mauston250mm x 7.5mm ferriteUnited States / WisconsinRunning2017-11-18 19:1231620|0%11|53%1754|55%
1939Hillsborough3x30cm ▲ Ferrites & E-FieldUnited States / North CarolinaRunning2017-11-18 19:1218610|0%0|0%1082|50%
1700PeoriaUnshielded Ferrite Rods, 120 m...United States / IllinoisRunning2017-11-18 19:1232457|53%1590|50%1599|49%
1175IndependenceSystem Red shielded ferrite an...United States / IowaRunning2017-11-18 19:1216570|0%148|54%1162|48%
1228RamseyRED, optimizing gain/trigger s...United States / New JerseyRunning2017-11-18 19:1233320|0%0|0%1527|46%
1013Montgomery VillageSystem semi-permanently instal...United States / MarylandRunning2017-11-18 19:1231650|0%0|0%1404|44%
1387BentonH - 300 x 7.5 shielded, E-Fiel...United States / ArkansasRunning2017-11-18 19:1221350|0%132|77%874|41%
1966Maniwaki QCBlue 2x 200mm ferrite rodCanadaRunning2017-11-18 19:1122290|0%0|0%885|39%
1189Clifton (Red)H-2∟250X7.5mm, E-200mmUnited States / VirginiaRunning2017-11-18 19:1230600|0%1|65%1149|37%
724Galloway (Red)250mm shielded ferritesUnited States / OhioRunning2017-11-18 19:1216980|0%798|43%882|37%
1308Siófok-Club218HungaryRunning2017-11-18 19:10930|0%0|0%32|34%
1451Clifton (Blue)H-3Δ 250X7.5mm, E-200mmUnited States / VirginiaRunning2017-11-18 19:1227320|0%1|73%902|33%
1124SátoraljaújhelyHungaryRunning2017-11-18 19:121120|0%0|0%35|32%
1908Tavarnelle Val Di PesaItalyRunning2017-11-18 19:11990|0%0|0%31|31%
1729SzolnokHungaryRunning2017-11-18 19:101230|0%0|0%37|30%
1750Town of RussellBlue H (2x20cm), E 10cm, filte...United States / WisconsinRunning2017-11-18 19:1261990|0%0|0%1858|30%
1775Running2017-11-18 19:101160|0%0|0%34|29%
1660PalmyraShielded Ferrites H-DeltaUnited States / VirginiaRunning2017-11-18 19:1221870|0%1|91%638|29%
1439Frankfort BH-3▲-250x7.5mm -- E-150x3mmUnited States / KentuckyRunning2017-11-18 19:1260060|0%1731|30%1752|29%
1759ZalaegerszegHungaryRunning2017-11-18 19:10930|0%0|0%27|29%
140PerugiaItalyRunning2017-11-18 19:11860|0%0|0%27|28%
1428KercaszomorHungaryRunning2017-11-18 19:101150|0%0|0%33|28%
391ArezzoShielded ferrite rods, 20cm - ...ItalyRunning2017-11-18 19:111050|0%0|0%28|28%
1852Quebec QCBlue 2x 200mm ferrite rodCanadaRunning2017-11-18 19:1216830|0%0|0%672|28%
1539MacombBlue Unshielded 9.5 X 210mm Ma...United States / IllinoisRunning2017-11-18 19:1257420|0%1571|28%1588|27%
502Rivalta di TorinoItalyRunning2017-11-18 19:111060|0%0|0%27|27%
1125TiszafüredHungaryRunning2017-11-18 19:12770|0%0|0%26|26%
727SusakGreen Ferrite 2x120mmCroatiaRunning2017-11-18 19:11860|0%0|0%23|26%
279BékéscsabaHungaryRunning2017-11-18 19:11840|0%0|0%24|25%
355SzentlélekHungaryRunning2017-11-18 19:111000|0%0|0%25|25%
1945Galloway (Blue)200 mm ferrites. Triangle con...United States / OhioRunning2017-11-18 19:1237900|0%880|30%958|25%
404GuntramsdorfAustriaRunning2017-11-18 19:111300|0%0|0%31|25%
283Lehesten / WetzsteinGermanyRunning2017-11-18 19:111430|0%0|0%34|25%
954Nhh REDHungaryRunning2017-11-18 19:121460|0%0|0%34|24%
936BarcsHungaryRunning2017-11-18 19:121080|0%0|0%25|24%
688EinbeckREDGermanyRunning2017-11-18 19:111320|0%1|33%31|24%
678GetingeSwedenRunning2017-11-18 19:111280|0%2|46%28|22%
941BakonyszombathelyHungaryRunning2017-11-18 19:12800|0%0|0%23|22%
844Rockingham150mm ferritesAustralia / Western AustraliaRunning2017-11-18 19:116290|0%0|0%211|22%
535HöxterGermanyRunning2017-11-18 19:11830|0%0|0%21|22%
687Rheinau-MemprechtshofenGermanyRunning2017-11-18 19:111430|0%0|0%30|22%
444AtzlrichtGermanyRunning2017-11-18 19:111330|0%0|0%28|22%
172TeisendorfGermanyRunning2017-11-18 19:11900|0%0|0%19|21%
627Steinhagen DK3HUGermanyRunning2017-11-18 19:11940|0%0|0%19|21%
582MielecPolandRunning2017-11-18 19:111000|0%0|0%20|21%
832HvarGREEN - PCB 6.5/5.5CroatiaRunning2017-11-18 19:12800|0%0|0%21|20%
1476Bois de la Pierre (BLUE)FranceRunning2017-11-18 19:101550|0%0|0%32|20%
735Leipzig / LößnigGermanyRunning2017-11-18 19:111650|0%1|18%32|20%
1263Dutton Park, Brisbane300mm loops (x 44 turns)Australia / QueenslandRunning2017-11-18 19:116400|0%0|0%129|20%
944Hamburg-NeuenfeldeSystem RED - Coax loopGermanyRunning2017-11-18 19:121810|0%0|0%34|20%
699StrausbergFerrite 200x15GermanyRunning2017-11-18 19:121530|0%1|19%29|20%
689Frankfort RH-2∟-300x7.5mm -- E-350x2mmUnited States / KentuckyRunning2017-11-18 19:1285560|0%1670|20%1697|19%
300LéognanFranceRunning2017-11-18 19:111180|0%0|0%22|19%
1239TirlemontBelgiumRunning2017-11-18 19:10870|0%0|0%17|19%
1271OssRED, 200mm ferrite, E under co...NetherlandsRunning2017-11-18 19:101590|0%0|0%31|19%
1493TourcoingInstallation pending...FranceRunning2017-11-18 19:101550|0%0|0%30|19%
1049Veghel(noord)NetherlandsRunning2017-11-18 19:121550|0%0|0%29|19%
561SiegertsbrunnGermanyRunning2017-11-18 19:11910|0%0|0%17|19%
1152SittardPA4EME : Syst. RED at 24 m AGLNetherlandsRunning2017-11-18 19:101840|0%0|0%35|19%
1002Bismarck280mm x 7.5mm ferrite, E-FieldUnited States / North DakotaRunning2017-11-18 19:1217490|0%0|0%425|19%
1527CranbrookReverted back to FW 8.0Australia / QueenslandRunning2017-11-18 19:1225890|0%0|0%490|18%
701Husseren-WesserlingFranceRunning2017-11-18 19:111550|0%0|0%28|18%
380Ruhland2GermanyRunning2017-11-18 19:111670|0%1|18%29|18%
1778VærløseBLUE 80cmx7 loop, 25cm E-fieldDenmarkRunning2017-11-18 19:101570|0%2|36%29|18%
759Hof bei SalzburgAustriaRunning2017-11-18 19:112150|0%0|0%37|18%
453NiepolomiceMariusz SP9HSQPolandRunning2017-11-18 19:121590|0%0|0%27|18%
452KisterenyeHungaryRunning2017-11-18 19:11690|0%0|0%20|18%
690GangloffsömmernGermanyRunning2017-11-18 19:111310|0%1|33%23|18%
417Roustika, CreteGreeceRunning2017-11-18 19:111790|0%24|16%31|17%
1518AalborgSystem Blue, 2x Ferrite RodDenmarkRunning2017-11-18 19:101730|0%1|24%31|17%
1613PortarlingtonSystem blue. 100mm E-fieldAustralia / VictoriaRunning2017-11-18 19:114840|0%0|0%112|17%
968Belgern-Schildau - DC0UBGermanyRunning2017-11-18 19:121420|0%1|20%24|17%
1108Ringgenberg am B'seeSwitzerlandRunning2017-11-18 19:121720|0%0|0%30|17%
1006BlausteinE-field : 1000mm Ø0,05mm in c...GermanyRunning2017-11-18 19:121680|0%0|0%28|17%
1785Dorfen (RED)2x SKS200/15N /w E-Field & AS3...GermanyRunning2017-11-18 19:101560|0%0|0%27|17%
1383South Sydney, NSWAustralia / New South WalesRunning2017-11-18 19:114720|0%0|0%117|17%
1817KirunaSwedenRunning2017-11-18 19:10780|0%0|0%16|17%
1682Rogers City-BLUEBlue w/200mm Horiz. 150mm Vert...United States / MichiganRunning2017-11-18 19:1231160|0%16|41%532|17%
2039GerringongTemporary jury rig GPS - testi...Australia / New South WalesRunning2017-11-18 19:129630|0%0|0%165|17%
1354Chatteris, CambridgeshireUnited KingdomRunning2017-11-18 19:101110|0%0|0%19|17%
782Foligno (PG)ItalyRunning2017-11-18 19:121910|0%0|0%30|17%
115Maria LanzendorfAustriaRunning2017-11-18 19:11690|0%0|0%19|16%
1360BARWELLUnited KingdomRunning2017-11-18 19:101130|0%0|0%19|16%
1713BüchelbergGermanyRunning2017-11-18 19:101250|0%0|0%21|16%
1048IpswichUnited KingdomRunning2017-11-18 19:12770|0%0|0%17|16%
1139Graz - RagnitzSystem RED, ferrite rods, shie...AustriaRunning2017-11-18 19:122440|0%0|0%40|16%
1590Canton3 x 200mm ferrite plus 140mm e...United States / New YorkRunning2017-11-18 19:12102920|0%0|0%1718|16%
1862Karuse (KO18UO ES3AT)EstoniaRunning2017-11-18 19:111630|0%0|0%27|16%
1885Pozega(blue)SystemBlue, 2x ferrite antennaCroatiaRunning2017-11-18 19:112140|0%0|0%35|16%
821Sedrun, GRSwitzerlandRunning2017-11-18 19:123440|0%0|0%24|16%
1580KeravaFinlandRunning2017-11-18 19:101350|0%0|0%22|16%
1491RuhlandBlue new for Station Green 206GermanyRunning2017-11-18 19:101660|0%1|17%27|16%
1061PLYMOUTHUnited KingdomRunning2017-11-18 19:121130|0%0|0%18|16%
1334Baye 51System RedFranceRunning2017-11-18 19:101670|0%0|0%27|16%
1502ValbonneFranceRunning2017-11-18 19:101740|0%0|0%28|16%
1853TerrassaCa n'AurellSpainRunning2017-11-18 19:111190|0%0|0%19|15%
292WarsawPolandRunning2017-11-18 19:111990|0%1|15%30|15%
878AldershotRED, Dual 1m 12turn shielded, ...United KingdomRunning2017-11-18 19:121770|0%0|0%27|15%
1093North Bethesda (Red)Occasional powerline interfere...United States / MarylandRunning2017-11-18 19:119150|0%1|45%694|15%
世界に広がる共同体に基づいた、リアルタイムでの雷雨測定のネットワーク。© 2003-2016 Blitzortung.org関係者
ソーシャルネットワーク
facebook LIKE US ON FACEBOOK
twitter FOLLOW US IN TWITTER
メニューの言語を選んで下さい
češtinadanskdeutschελληνικάenglishespañolsuomeksifrançaismagyaritaliano日本語latviskinederlandsenorskpolskiрусскийсрпскиsvenskatürkукраїнський
もしメニューの操作をしたいのにあなたの言語がサポートされていない場合は、info ☺ blitzortung.org にメールを書いて下さい。